Williamsburg, Virginia
Current Conditions -  °F | °C
As of 3:58 PM on Tuesday 27 Jan 2015 (Local Time) from KFAF Reporting Station
Few Clouds Few Clouds  
Wind Chill: 28°   Ceiling: Unl
Heat Index: 37°   Visibility: 10mi
Dew Point: 28°   Wind: 13mph
Humidity: 71%   Direction: 340°NNW
Pressure: 29.77"   Gusts: NA
Location:  37.28°N, 76.71°W
Report Text: KFAF 272058Z AUTO 34011KT 10SM FEW026 03/M02 A2977 RMK AO2 SLP084 T00261021 53007 $
Loading
Personal Weather Stations






























Interactive Weather Map New forecast layout! Learn more

10-Day Weather Forecast

Advertisements
Track Severe Weather on mobile